Time;durP1;ratioP1;P1;durP2;ratioP2;P2;SDS_P1;SDS_P2;PMS_P1;PMS_P2;Temp;Humidity;BMP_temperature;BMP_pressure;BME280_temperature;BME280_humidity;BME280_pressure;Samples;Min_cycle;Max_cycle;Signal;HPM_P1;HPM_P2
2022/09/11 00:01:32;;;;;;;;;;;;;;;;;;5026415;28;19921;-71
2022/09/11 00:03:57;;;;;;;;;;;;;;;;;;5024331;28;19966;-71
2022/09/11 00:06:23;;;;;;;;;;;;;;;;;;5025005;28;19925;-71
2022/09/11 00:08:49;;;;;;;;;;;;;;;;;;5024751;28;20299;-71
2022/09/11 00:11:16;;;;;;;;;;;;;;;;;;5024825;28;19921;-71
2022/09/11 00:13:42;;;;;;;;;;;;;;;;;;5025074;28;19924;-71
2022/09/11 00:16:08;;;;;;;;;;;;;;;;;;5025504;28;20660;-71
2022/09/11 00:18:37;;;;;;;;;;;;;;;;;;5026066;28;19925;-71
2022/09/11 00:21:02;;;;;;;;;;;;;;;;;;5025894;28;19964;-71
2022/09/11 00:23:28;;;;;;;;;;;;;;;;;;5025672;28;19960;-71
2022/09/11 00:25:54;;;;;;;;;;;;;;;;;;5026365;28;20216;-71
2022/09/11 00:28:24;;;;;;;1.10;1.10;;;;;;;;;;5024134;28;19921;-70
2022/09/11 00:31:01;;;;;;;0.90;0.90;;;;;;;;;;5023978;28;20044;-71
2022/09/11 00:33:27;;;;;;;1.13;1.08;;;;;;;;;;5024192;28;20050;-71
2022/09/11 00:35:57;;;;;;;0.90;0.90;;;;;;;;;;5025962;28;20147;-71
2022/09/11 00:38:23;;;;;;;0.95;0.95;;;;;;;;;;5024962;28;20077;-71
2022/09/11 00:40:49;;;;;;;0.77;0.77;;;;;;;;;;5024104;28;20045;-71
2022/09/11 00:43:16;;;;;;;0.70;0.70;;;;;;;;;;5024476;28;20652;-71
2022/09/11 00:45:43;;;;;;;0.73;0.73;;;;;;;;;;5024883;28;20052;-71
2022/09/11 00:48:10;;;;;;;0.73;0.73;;;;;;;;;;5024832;28;20041;-71
2022/09/11 00:50:36;;;;;;;0.98;0.98;;;;;;;;;;5023794;28;20060;-71
2022/09/11 00:53:06;;;;;;;1.17;1.15;;;;;;;;;;5019532;28;20692;-71
2022/09/11 00:55:34;;;;;;;0.70;0.70;;;;;;;;;;5021140;28;20054;-71
2022/09/11 00:58:14;;;;;;;0.80;0.80;;;;;;;;;;5020657;28;20045;-70
2022/09/11 01:00:42;;;;;;;1.20;1.10;;;;;;;;;;5023312;28;20045;-70
2022/09/11 01:03:08;;;;;;;0.80;0.80;;;;;;;;;;5022859;28;20507;-70
2022/09/11 01:05:35;;;;;;;0.95;0.95;;;;;;;;;;5021781;28;20500;-71
2022/09/11 01:08:02;;;;;;;1.10;1.10;;;;;;;;;;5022348;28;20048;-71
2022/09/11 01:10:47;;;;;;;1.00;1.00;;;;;;;;;;5023985;28;20053;-71
2022/09/11 01:13:22;;;;;;;0.65;0.65;;;;;;;;;;5023566;28;20049;-71
2022/09/11 01:15:48;;;;;;;1.00;1.00;;;;;;;;;;5023812;28;20407;-71
2022/09/11 01:18:21;;;;;;;1.10;1.02;;;;;;;;;;5024180;28;20045;-71
2022/09/11 01:20:50;;;;;;;1.00;1.00;;;;;;;;;;5037379;28;20041;-71
2022/09/11 01:23:36;;;;;;;1.35;1.25;;;;;;;;;;5021716;28;20046;-71
2022/09/11 01:26:01;;;;;;;;;;;;;;;;;;5024016;28;20083;-71
2022/09/11 01:28:27;;;;;;;;;;;;;;;;;;5022112;28;19929;-71
2022/09/11 01:30:53;;;;;;;;;;;;;;;;;;5021845;28;20039;-71
2022/09/11 01:33:19;;;;;;;;;;;;;;;;;;5023624;28;20372;-71
2022/09/11 01:35:45;;;;;;;;;;;;;;;;;;5023377;28;19925;-71
2022/09/11 01:38:11;;;;;;;;;;;;;;;;;;5023384;28;20385;-71
2022/09/11 01:40:38;;;;;;;;;;;;;;;;;;5023707;28;19925;-71
2022/09/11 01:43:05;;;;;;;;;;;;;;;;;;5022392;28;19920;-72
2022/09/11 01:45:30;;;;;;;;;;;;;;;;;;5023916;28;19928;-72
2022/09/11 01:47:56;;;;;;;;;;;;;;;;;;5021686;28;19921;-71
2022/09/11 01:50:22;;;;;;;;;;;;;;;;;;5024078;28;20038;-72
2022/09/11 01:52:49;;;;;;;;;;;;;;;;;;5023494;28;20376;-71
2022/09/11 01:55:15;;;;;;;;;;;;;;;;;;5023931;28;19928;-72
2022/09/11 01:57:41;;;;;;;;;;;;;;;;;;5022110;28;19921;-71
2022/09/11 02:00:07;;;;;;;;;;;;;;;;;;5022904;28;19954;-71
2022/09/11 02:02:33;;;;;;;;;;;;;;;;;;5021974;28;19976;-72
2022/09/11 02:04:58;;;;;;;;;;;;;;;;;;5023345;28;20003;-72
2022/09/11 02:07:24;;;;;;;;;;;;;;;;;;5025459;28;20351;-71
2022/09/11 02:09:51;;;;;;;;;;;;;;;;;;5029670;28;20019;-72
2022/09/11 02:12:17;;;;;;;;;;;;;;;;;;5030599;28;20106;-71
2022/09/11 02:14:42;;;;;;;;;;;;;;;;;;5029522;28;20016;-72
2022/09/11 02:17:08;;;;;;;;;;;;;;;;;;5027979;28;19931;-71
2022/09/11 02:19:34;;;;;;;;;;;;;;;;;;5028950;28;19933;-72
2022/09/11 02:22:00;;;;;;;;;;;;;;;;;;5028996;28;19928;-72
2022/09/11 02:24:26;;;;;;;;;;;;;;;;;;5029568;28;19925;-72
2022/09/11 02:26:52;;;;;;;;;;;;;;;;;;5030297;28;19925;-71
2022/09/11 02:29:18;;;;;;;;;;;;;;;;;;5030037;28;19925;-71
2022/09/11 02:31:44;;;;;;;;;;;;;;;;;;5029015;28;19948;-72
2022/09/11 02:34:10;;;;;;;;;;;;;;;;;;5028825;28;20003;-72
2022/09/11 02:36:45;;;;;;;0.90;0.90;;;;;;;;;;5028089;28;19936;-72
2022/09/11 02:39:11;;;;;;;;;;;;;;;;;;5029018;28;19925;-72
2022/09/11 02:41:37;;;;;;;;;;;;;;;;;;5030171;28;19936;-72
2022/09/11 02:44:03;;;;;;;;;;;;;;;;;;5029283;28;19929;-72
2022/09/11 02:46:33;;;;;;;1.15;1.15;;;;;;;;;;5029753;28;19933;-72
2022/09/11 02:49:11;;;;;;;1.10;1.10;;;;;;;;;;5027872;28;20041;-72
2022/09/11 02:51:57;;;;;;;1.27;1.23;;;;;;;;;;5027536;28;20108;-72
2022/09/11 02:54:26;;;;;;;0.70;0.70;;;;;;;;;;5026374;28;20049;-72
2022/09/11 02:57:01;;;;;;;0.60;0.60;;;;;;;;;;5028036;28;20038;-72
2022/09/11 02:59:31;;;;;;;0.60;0.60;;;;;;;;;;5027048;28;20059;-72
2022/09/11 03:02:00;;;;;;;0.82;0.82;;;;;;;;;;5029426;28;20699;-72
2022/09/11 03:04:26;;;;;;;0.95;0.95;;;;;;;;;;5027919;28;20052;-72
2022/09/11 03:06:52;;;;;;;;;;;;;;;;;;5027452;28;20088;-71
2022/09/11 03:09:19;;;;;;;0.80;0.80;;;;;;;;;;5028149;28;20051;-72
2022/09/11 03:11:45;;;;;;;0.88;0.88;;;;;;;;;;5029051;28;20069;-72
2022/09/11 03:14:11;;;;;;;0.80;0.80;;;;;;;;;;5028292;28;20044;-72
2022/09/11 03:16:37;;;;;;;0.70;0.70;;;;;;;;;;5028149;28;20075;-72
2022/09/11 03:19:04;;;;;;;0.63;0.63;;;;;;;;;;5024201;28;20100;-73
2022/09/11 03:21:30;;;;;;;0.50;0.50;;;;;;;;;;5024237;28;20479;-72
2022/09/11 03:23:56;;;;;;;0.35;0.35;;;;;;;;;;5024378;28;20049;-71
2022/09/11 03:26:22;;;;;;;0.32;0.32;;;;;;;;;;5024503;28;20041;-71
2022/09/11 03:28:53;;;;;;;0.17;0.17;;;;;;;;;;5024770;28;20518;-71
2022/09/11 03:31:19;;;;;;;0.47;0.30;;;;;;;;;;5023291;28;20057;-71
2022/09/11 03:33:45;;;;;;;0.20;0.20;;;;;;;;;;5024281;28;20047;-71
2022/09/11 03:36:12;;;;;;;0.20;0.20;;;;;;;;;;5026250;28;20041;-71
2022/09/11 03:38:39;;;;;;;0.20;0.20;;;;;;;;;;5024225;28;20045;-71
2022/09/11 03:41:05;;;;;;;0.38;0.38;;;;;;;;;;5023831;28;20049;-71
2022/09/11 03:43:32;;;;;;;0.50;0.50;;;;;;;;;;5024199;28;20053;-71
2022/09/11 03:45:59;;;;;;;0.40;0.40;;;;;;;;;;5025395;28;20443;-72
2022/09/11 03:48:25;;;;;;;0.75;0.50;;;;;;;;;;5024527;28;20046;-71
2022/09/11 03:50:51;;;;;;;0.60;0.60;;;;;;;;;;5023342;28;20042;-71
2022/09/11 03:53:17;;;;;;;0.40;0.40;;;;;;;;;;5025533;28;20052;-72
2022/09/11 03:55:48;;;;;;;0.30;0.30;;;;;;;;;;5023857;28;20041;-70
2022/09/11 03:58:14;;;;;;;0.30;0.30;;;;;;;;;;5026111;28;20053;-70
2022/09/11 04:00:43;;;;;;;0.30;0.30;;;;;;;;;;5025193;28;20033;-70
2022/09/11 04:03:10;;;;;;;0.20;0.20;;;;;;;;;;5024652;28;20049;-71
2022/09/11 04:05:37;;;;;;;0.10;0.10;;;;;;;;;;5025000;28;20062;-71
2022/09/11 04:08:03;;;;;;;0.08;0.08;;;;;;;;;;5024175;28;20057;-70
2022/09/11 04:10:29;;;;;;;0.03;0.03;;;;;;;;;;5022435;28;20053;-71
2022/09/11 04:12:55;;;;;;;0.20;0.20;;;;;;;;;;5023965;28;20048;-71
2022/09/11 04:15:20;;;;;;;0.10;0.10;;;;;;;;;;5024656;28;20076;-71
2022/09/11 04:17:48;;;;;;;0.10;0.10;;;;;;;;;;5025202;28;20606;-71
2022/09/11 04:20:14;;;;;;;0.15;0.15;;;;;;;;;;5024075;28;20046;-71
2022/09/11 04:22:40;;;;;;;0.00;0.00;;;;;;;;;;5024078;28;20073;-71
2022/09/11 04:25:06;;;;;;;0.20;0.20;;;;;;;;;;5024961;28;20096;-71
2022/09/11 04:27:33;;;;;;;0.10;0.10;;;;;;;;;;5025064;28;20103;-71
2022/09/11 04:29:59;;;;;;;0.10;0.10;;;;;;;;;;5022522;28;20053;-71
2022/09/11 04:32:25;;;;;;;0.00;0.00;;;;;;;;;;5023850;28;20049;-71
2022/09/11 04:34:51;;;;;;;0.10;0.10;;;;;;;;;;5021312;28;20045;-71
2022/09/11 04:37:18;;;;;;;0.10;0.10;;;;;;;;;;5023149;28;20037;-71
2022/09/11 04:39:44;;;;;;;0.10;0.10;;;;;;;;;;5021654;28;20064;-71
2022/09/11 04:42:10;;;;;;;0.13;0.13;;;;;;;;;;5021495;28;20045;-71
2022/09/11 04:44:37;;;;;;;0.10;0.10;;;;;;;;;;5023922;28;20053;-70
2022/09/11 04:47:04;;;;;;;0.10;0.10;;;;;;;;;;5023515;28;20160;-71
2022/09/11 04:49:30;;;;;;;0.10;0.10;;;;;;;;;;5022957;28;20045;-71
2022/09/11 04:52:01;;;;;;;0.10;0.10;;;;;;;;;;5023503;28;20057;-71
2022/09/11 04:54:27;;;;;;;0.10;0.10;;;;;;;;;;5024737;28;20071;-71
2022/09/11 04:56:53;;;;;;;0.05;0.05;;;;;;;;;;5023029;28;20812;-71
2022/09/11 04:59:21;;;;;;;0.10;0.10;;;;;;;;;;5023680;28;20045;-71
2022/09/11 05:01:47;;;;;;;0.10;0.10;;;;;;;;;;5024194;28;20480;-70
2022/09/11 05:04:14;;;;;;;0.15;0.15;;;;;;;;;;5023096;28;20108;-71
2022/09/11 05:06:41;;;;;;;0.13;0.13;;;;;;;;;;5023533;28;20057;-71
2022/09/11 05:09:08;;;;;;;0.30;0.30;;;;;;;;;;5023971;28;20056;-71
2022/09/11 05:11:34;;;;;;;0.20;0.20;;;;;;;;;;5021498;28;20060;-71
2022/09/11 05:14:01;;;;;;;0.17;0.13;;;;;;;;;;5022743;28;20048;-71
2022/09/11 05:16:27;;;;;;;0.20;0.20;;;;;;;;;;5024080;28;20072;-71
2022/09/11 05:18:54;;;;;;;0.20;0.20;;;;;;;;;;5021032;28;20060;-70
2022/09/11 05:21:23;;;;;;;0.20;0.20;;;;;;;;;;5023316;28;20049;-71
2022/09/11 05:23:50;;;;;;;0.20;0.20;;;;;;;;;;5022923;28;20053;-71
2022/09/11 05:26:17;;;;;;;0.20;0.20;;;;;;;;;;5020325;28;20045;-71
2022/09/11 05:28:44;;;;;;;0.20;0.20;;;;;;;;;;5024168;28;20034;-71
2022/09/11 05:31:11;;;;;;;0.20;0.20;;;;;;;;;;5021915;28;20057;-71
2022/09/11 05:33:37;;;;;;;0.25;0.25;;;;;;;;;;5022697;28;20155;-71
2022/09/11 05:36:04;;;;;;;0.30;0.20;;;;;;;;;;5020857;28;20045;-71
2022/09/11 05:38:31;;;;;;;0.43;0.43;;;;;;;;;;5022267;28;20045;-71
2022/09/11 05:40:57;;;;;;;0.30;0.30;;;;;;;;;;5021400;28;20041;-71
2022/09/11 05:43:23;;;;;;;0.40;0.40;;;;;;;;;;5019450;28;20076;-71
2022/09/11 05:45:56;;;;;;;0.32;0.20;;;;;;;;;;5021501;28;20050;-71
2022/09/11 05:48:22;;;;;;;0.30;0.30;;;;;;;;;;5022852;28;20037;-71
2022/09/11 05:50:52;;;;;;;0.20;0.20;;;;;;;;;;5023548;28;20503;-71
2022/09/11 05:53:19;;;;;;;0.10;0.10;;;;;;;;;;5021499;28;20080;-71
2022/09/11 05:55:46;;;;;;;0.20;0.20;;;;;;;;;;5019957;28;20329;-71
2022/09/11 05:58:12;;;;;;;0.20;0.20;;;;;;;;;;5021001;28;20124;-71
2022/09/11 06:00:39;;;;;;;0.40;0.40;;;;;;;;;;5020385;28;20057;-71
2022/09/11 06:03:06;;;;;;;0.30;0.30;;;;;;;;;;5022850;28;20088;-71
2022/09/11 06:05:32;;;;;;;0.40;0.40;;;;;;;;;;5021541;28;20634;-71
2022/09/11 06:08:00;;;;;;;0.35;0.35;;;;;;;;;;5021143;28;20045;-71
2022/09/11 06:10:26;;;;;;;0.30;0.30;;;;;;;;;;5023352;28;20061;-71
2022/09/11 06:12:52;;;;;;;0.30;0.30;;;;;;;;;;5020529;28;20447;-71
2022/09/11 06:15:18;;;;;;;0.20;0.20;;;;;;;;;;5023070;28;20694;-71
2022/09/11 06:17:44;;;;;;;0.20;0.20;;;;;;;;;;5023646;28;20080;-71
2022/09/11 06:20:11;;;;;;;0.30;0.30;;;;;;;;;;5021976;28;20696;-71
2022/09/11 06:22:37;;;;;;;0.20;0.20;;;;;;;;;;5022440;28;20653;-71
2022/09/11 06:25:04;;;;;;;0.25;0.10;;;;;;;;;;5023124;28;20053;-71
2022/09/11 06:27:30;;;;;;;0.20;0.20;;;;;;;;;;5021507;28;20507;-71
2022/09/11 06:29:56;;;;;;;0.20;0.20;;;;;;;;;;5020050;28;20041;-71
2022/09/11 06:32:22;;;;;;;0.30;0.30;;;;;;;;;;5022116;28;20061;-71
2022/09/11 06:34:48;;;;;;;0.30;0.30;;;;;;;;;;5020680;28;20050;-71
2022/09/11 06:37:14;;;;;;;0.40;0.30;;;;;;;;;;5022817;28;20168;-71
2022/09/11 06:39:40;;;;;;;0.20;0.20;;;;;;;;;;5021458;28;20061;-71
2022/09/11 06:42:07;;;;;;;0.28;0.28;;;;;;;;;;5022617;28;20060;-71
2022/09/11 06:44:32;;;;;;;0.43;0.30;;;;;;;;;;5021053;28;20056;-71
2022/09/11 06:46:58;;;;;;;0.30;0.30;;;;;;;;;;5019237;28;20116;-71
2022/09/11 06:49:25;;;;;;;0.22;0.22;;;;;;;;;;5024387;28;20037;-72
2022/09/11 06:51:52;;;;;;;0.20;0.15;;;;;;;;;;5016904;28;20046;-72
2022/09/11 06:54:18;;;;;;;0.45;0.45;;;;;;;;;;5018173;28;20049;-71
2022/09/11 06:56:45;;;;;;;0.43;0.43;;;;;;;;;;5019515;28;20655;-71
2022/09/11 06:59:11;;;;;;;0.22;0.22;;;;;;;;;;5026274;28;20045;-72
2022/09/11 07:01:38;;;;;;;0.32;0.30;;;;;;;;;;5025375;28;20516;-71
2022/09/11 07:04:04;;;;;;;0.20;0.20;;;;;;;;;;5022845;28;20056;-71
2022/09/11 07:06:30;;;;;;;0.10;0.10;;;;;;;;;;5024593;28;20057;-71
2022/09/11 07:09:01;;;;;;;0.30;0.30;;;;;;;;;;5026194;28;20045;-71
2022/09/11 07:11:31;;;;;;;0.20;0.20;;;;;;;;;;5024406;28;20057;-71
2022/09/11 07:13:57;;;;;;;0.10;0.10;;;;;;;;;;5025546;28;20526;-71
2022/09/11 07:16:23;;;;;;;0.10;0.10;;;;;;;;;;5026028;28;20567;-71
2022/09/11 07:18:49;;;;;;;0.40;0.40;;;;;;;;;;5025463;28;20068;-71
2022/09/11 07:21:22;;;;;;;0.30;0.30;;;;;;;;;;5023522;28;20046;-71
2022/09/11 07:23:53;;;;;;;0.10;0.10;;;;;;;;;;5024355;28;20104;-71
2022/09/11 07:26:20;;;;;;;0.10;0.10;;;;;;;;;;5024715;28;20049;-72
2022/09/11 07:28:50;;;;;;;0.20;0.20;;;;;;;;;;5026109;28;20484;-71
2022/09/11 07:31:17;;;;;;;0.43;0.30;;;;;;;;;;5020433;28;20131;-71
2022/09/11 07:33:45;;;;;;;0.20;0.20;;;;;;;;;;5023224;28;20073;-71
2022/09/11 07:36:11;;;;;;;0.40;0.40;;;;;;;;;;5026283;28;20080;-71
2022/09/11 07:38:41;;;;;;;0.20;0.20;;;;;;;;;;5026091;28;20087;-72
2022/09/11 07:41:08;;;;;;;0.20;0.20;;;;;;;;;;5024470;28;20651;-72
2022/09/11 07:43:35;;;;;;;0.10;0.10;;;;;;;;;;5026355;28;20041;-71
2022/09/11 07:46:01;;;;;;;0.30;0.30;;;;;;;;;;5024813;28;20595;-72
2022/09/11 07:48:27;;;;;;;0.25;0.25;;;;;;;;;;5026303;28;20033;-72
2022/09/11 07:50:59;;;;;;;0.70;0.70;;;;;;;;;;5025045;28;20111;-72
2022/09/11 07:53:25;;;;;;;0.70;0.70;;;;;;;;;;5023891;28;20052;-66
2022/09/11 07:55:51;;;;;;;0.70;0.70;;;;;;;;;;5022395;28;20156;-65
2022/09/11 07:58:17;;;;;;;0.50;0.40;;;;;;;;;;5026991;28;20044;-66
2022/09/11 08:00:44;;;;;;;0.40;0.40;;;;;;;;;;5025388;28;20613;-66
2022/09/11 08:03:10;;;;;;;0.40;0.40;;;;;;;;;;5019239;28;20048;-65
2022/09/11 08:05:36;;;;;;;0.30;0.30;;;;;;;;;;5024760;28;20514;-70
2022/09/11 08:08:02;;;;;;;0.25;0.25;;;;;;;;;;5025530;28;20082;-70
2022/09/11 08:10:28;;;;;;;0.35;0.35;;;;;;;;;;5024708;28;20165;-71
2022/09/11 08:12:54;;;;;;;0.25;0.25;;;;;;;;;;5024951;28;20738;-69
2022/09/11 08:15:20;;;;;;;0.30;0.30;;;;;;;;;;5024522;28;20045;-73
2022/09/11 08:17:47;;;;;;;0.30;0.30;;;;;;;;;;5024372;28;20046;-70
2022/09/11 08:20:13;;;;;;;0.40;0.40;;;;;;;;;;5024591;28;20048;-69
2022/09/11 08:22:40;;;;;;;0.68;0.68;;;;;;;;;;5021040;28;20053;-69
2022/09/11 08:25:07;;;;;;;0.70;0.70;;;;;;;;;;5024128;28;20099;-69
2022/09/11 08:27:34;;;;;;;0.63;0.63;;;;;;;;;;5024536;28;20042;-69
2022/09/11 08:30:00;;;;;;;0.52;0.50;;;;;;;;;;5025093;28;20051;-70
2022/09/11 08:32:27;;;;;;;0.60;0.60;;;;;;;;;;5025354;28;20080;-69
2022/09/11 08:34:53;;;;;;;0.98;0.88;;;;;;;;;;5016610;28;20677;-69
2022/09/11 08:37:19;;;;;;;0.50;0.50;;;;;;;;;;5024039;28;20045;-68
2022/09/11 08:39:45;;;;;;;0.40;0.40;;;;;;;;;;5024894;28;20046;-69
2022/09/11 08:42:13;;;;;;;0.40;0.40;;;;;;;;;;5024779;28;20041;-69
2022/09/11 08:44:50;;;;;;;0.25;0.25;;;;;;;;;;5024706;28;20045;-69
2022/09/11 08:47:18;;;;;;;0.30;0.30;;;;;;;;;;5024435;28;20068;-70
2022/09/11 08:49:48;;;;;;;0.25;0.25;;;;;;;;;;5023681;28;20051;-69
2022/09/11 08:52:15;;;;;;;0.30;0.30;;;;;;;;;;5024574;28;20049;-70
2022/09/11 08:54:42;;;;;;;0.20;0.20;;;;;;;;;;5025439;28;20172;-70
2022/09/11 08:57:31;;;;;;;0.08;0.08;;;;;;;;;;5024377;28;20490;-69
2022/09/11 09:00:09;;;;;;;0.10;0.10;;;;;;;;;;5024041;28;20049;-69
2022/09/11 09:02:45;;;;;;;0.30;0.10;;;;;;;;;;5025088;28;20107;-69
2022/09/11 09:05:20;;;;;;;0.10;0.10;;;;;;;;;;5022908;28;20057;-70
2022/09/11 09:07:55;;;;;;;0.20;0.20;;;;;;;;;;5021040;28;20958;-70
2022/09/11 09:10:27;;;;;;;0.10;0.10;;;;;;;;;;5024785;28;20496;-70
2022/09/11 09:13:09;;;;;;;0.10;0.10;;;;;;;;;;5022491;28;20077;-70
2022/09/11 09:15:48;;;;;;;0.82;0.65;;;;;;;;;;5026594;28;20863;-70
2022/09/11 09:18:17;;;;;;;0.77;0.30;;;;;;;;;;5028644;28;20062;-70
2022/09/11 09:20:56;;;;;;;0.73;0.43;;;;;;;;;;5023049;28;20033;-70
2022/09/11 09:23:28;;;;;;;0.65;0.60;;;;;;;;;;5023606;28;20038;-70
2022/09/11 09:25:56;;;;;;;0.32;0.20;;;;;;;;;;5015847;28;20053;-70
2022/09/11 09:28:42;;;;;;;0.60;0.35;;;;;;;;;;5024416;28;20045;-70
2022/09/11 09:31:09;;;;;;;0.40;0.40;;;;;;;;;;5019500;28;20045;-70
2022/09/11 09:33:43;;;;;;;0.47;0.35;;;;;;;;;;5022415;28;20075;-70
2022/09/11 09:36:13;;;;;;;0.65;0.30;;;;;;;;;;5014980;28;20048;-70
2022/09/11 09:38:39;;;;;;;0.20;0.20;;;;;;;;;;5023359;28;20045;-70
2022/09/11 09:41:21;;;;;;;0.38;0.38;;;;;;;;;;5022707;28;20413;-70
2022/09/11 09:44:03;;;;;;;0.30;0.30;;;;;;;;;;5021399;28;20471;-70
2022/09/11 09:46:43;;;;;;;0.50;0.50;;;;;;;;;;5021193;28;20069;-71
2022/09/11 09:49:10;;;;;;;0.70;0.60;;;;;;;;;;5021926;28;20043;-70
2022/09/11 09:51:38;;;;;;;1.05;0.40;;;;;;;;;;5023610;28;20049;-65
2022/09/11 09:54:05;;;;;;;0.32;0.32;;;;;;;;;;5023270;28;20041;-70
2022/09/11 09:56:36;;;;;;;0.60;0.60;;;;;;;;;;5022504;28;20049;-70
2022/09/11 09:59:08;;;;;;;0.40;0.40;;;;;;;;;;5016881;28;20041;-70
2022/09/11 10:01:43;;;;;;;0.40;0.40;;;;;;;;;;5021944;28;20050;-71
2022/09/11 10:04:29;;;;;;;0.30;0.30;;;;;;;;;;5022314;28;20053;-70
2022/09/11 10:07:13;;;;;;;0.20;0.20;;;;;;;;;;5021391;28;20499;-71
2022/09/11 10:09:48;;;;;;;0.22;0.22;;;;;;;;;;5022149;28;20100;-70
2022/09/11 10:12:20;;;;;;;0.20;0.20;;;;;;;;;;5022338;28;20052;-70
2022/09/11 10:14:59;;;;;;;0.30;0.30;;;;;;;;;;5021284;28;20063;-70
2022/09/11 10:17:29;;;;;;;0.30;0.30;;;;;;;;;;5020202;28;20038;-71
2022/09/11 10:19:56;;;;;;;0.20;0.20;;;;;;;;;;5022631;28;20064;-71
2022/09/11 10:22:29;;;;;;;0.20;0.20;;;;;;;;;;5014419;28;20128;-71
2022/09/11 10:25:03;;;;;;;0.20;0.20;;;;;;;;;;5004297;28;20587;-71
2022/09/11 10:27:30;;;;;;;0.20;0.20;;;;;;;;;;5004631;28;20049;-71
2022/09/11 10:29:57;;;;;;;0.20;0.20;;;;;;;;;;5033616;28;20045;-71
2022/09/11 10:32:24;;;;;;;0.10;0.10;;;;;;;;;;5026640;28;20045;-71
2022/09/11 10:34:52;;;;;;;0.20;0.20;;;;;;;;;;5026224;28;21711;-71
2022/09/11 10:37:28;;;;;;;0.10;0.10;;;;;;;;;;5026597;28;20545;-71
2022/09/11 10:40:00;;;;;;;0.20;0.20;;;;;;;;;;5026838;28;20052;-71
2022/09/11 10:42:27;;;;;;;0.10;0.10;;;;;;;;;;5026191;28;20049;-71
2022/09/11 10:44:54;;;;;;;0.20;0.20;;;;;;;;;;5025886;28;20045;-71
2022/09/11 10:47:20;;;;;;;0.20;0.20;;;;;;;;;;5026834;28;20037;-71
2022/09/11 10:49:47;;;;;;;0.10;0.10;;;;;;;;;;5025290;28;20506;-71
2022/09/11 10:52:13;;;;;;;0.10;0.10;;;;;;;;;;5027053;28;20084;-70
2022/09/11 10:55:01;;;;;;;0.32;0.32;;;;;;;;;;5025540;28;20514;-70
2022/09/11 10:57:30;;;;;;;0.80;0.52;;;;;;;;;;5027141;28;20132;-71
2022/09/11 11:00:14;;;;;;;0.75;0.70;;;;;;;;;;5026251;28;20052;-70
2022/09/11 11:02:45;;;;;;;1.10;0.70;;;;;;;;;;5025885;28;20049;-71
2022/09/11 11:05:32;;;;;;;0.85;0.50;;;;;;;;;;5025298;28;20153;-71
2022/09/11 11:08:01;;;;;;;0.77;0.60;;;;;;;;;;5017266;28;20045;-71
2022/09/11 11:10:37;;;;;;;0.85;0.40;;;;;;;;;;5026798;28;20049;-71
2022/09/11 11:13:09;;;;;;;0.82;0.60;;;;;;;;;;5025995;28;20060;-71
2022/09/11 11:15:43;;;;;;;0.40;0.40;;;;;;;;;;5027080;28;20076;-71
2022/09/11 11:18:10;;;;;;;0.25;0.20;;;;;;;;;;5026858;28;20045;-71
2022/09/11 11:20:44;;;;;;;0.40;0.30;;;;;;;;;;5025700;28;20128;-71
2022/09/11 11:23:10;;;;;;;1.02;0.20;;;;;;;;;;5023338;28;20072;-71
2022/09/11 11:25:56;;;;;;;0.10;0.10;;;;;;;;;;5021776;28;20085;-71
2022/09/11 11:28:25;;;;;;;0.60;0.47;;;;;;;;;;5026251;28;20777;-71
2022/09/11 11:30:59;;;;;;;0.47;0.40;;;;;;;;;;5026932;28;20045;-71
2022/09/11 11:33:41;;;;;;;0.50;0.40;;;;;;;;;;5025096;28;20052;-71
2022/09/11 11:36:14;;;;;;;0.30;0.30;;;;;;;;;;5019896;28;20092;-71
2022/09/11 11:38:40;;;;;;;0.55;0.45;;;;;;;;;;5026296;28;20049;-71
2022/09/11 11:41:11;;;;;;;0.73;0.50;;;;;;;;;;5024282;28;20056;-71
2022/09/11 11:43:39;;;;;;;0.55;0.50;;;;;;;;;;5025041;28;20057;-71
2022/09/11 11:46:05;;;;;;;0.60;0.60;;;;;;;;;;5025836;28;20076;-71
2022/09/11 11:48:37;;;;;;;0.50;0.50;;;;;;;;;;5026777;28;20045;-70
2022/09/11 11:51:06;;;;;;;1.27;0.70;;;;;;;;;;5019425;28;20087;-71
2022/09/11 11:53:34;;;;;;;1.50;0.50;;;;;;;;;;5021785;28;20076;-71
2022/09/11 11:56:04;;;;;;;0.32;0.32;;;;;;;;;;5024823;28;20125;-71
2022/09/11 11:58:40;;;;;;;0.43;0.43;;;;;;;;;;5025417;28;20052;-71
2022/09/11 12:01:10;;;;;;;0.55;0.35;;;;;;;;;;5017920;28;20227;-71
2022/09/11 12:03:42;;;;;;;0.50;0.35;;;;;;;;;;5026179;28;20049;-71
2022/09/11 12:06:08;;;;;;;;;;;;;;;;;;5019316;28;20061;-71
2022/09/11 12:08:44;;;;;;;0.20;0.20;;;;;;;;;;5012999;28;19978;-71
2022/09/11 12:11:12;;;;;;;0.35;0.30;;;;;;;;;;5021979;28;20122;-71
2022/09/11 12:13:43;;;;;;;0.93;0.40;;;;;;;;;;5018008;28;20822;-71
2022/09/11 12:16:09;;;;;;;;;;;;;;;;;;5007398;28;20045;-69
2022/09/11 12:18:37;;;;;;;0.20;0.20;;;;;;;;;;5007515;28;19921;-70
2022/09/11 12:21:22;;;;;;;0.40;0.30;;;;;;;;;;5021312;28;20076;-70
2022/09/11 12:23:48;;;;;;;0.30;0.30;;;;;;;;;;5024047;28;20045;-70
2022/09/11 12:26:21;;;;;;;0.75;0.40;;;;;;;;;;5026336;28;20055;-70
2022/09/11 12:28:47;;;;;;;0.30;0.25;;;;;;;;;;5024947;28;20053;-70
2022/09/11 12:31:17;;;;;;;0.98;0.30;;;;;;;;;;5025664;28;20398;-70
2022/09/11 12:33:44;;;;;;;0.40;0.40;;;;;;;;;;5017734;28;20175;-70
2022/09/11 12:36:12;;;;;;;0.40;0.40;;;;;;;;;;5024050;28;20041;-70
2022/09/11 12:38:44;;;;;;;0.68;0.40;;;;;;;;;;5025363;28;20048;-70
2022/09/11 12:41:16;;;;;;;0.35;0.30;;;;;;;;;;5017892;28;20052;-70
2022/09/11 12:43:42;;;;;;;0.50;0.30;;;;;;;;;;5016967;28;20087;-71
2022/09/11 12:46:13;;;;;;;0.73;0.30;;;;;;;;;;5020920;28;20053;-70
2022/09/11 12:48:41;;;;;;;0.82;0.55;;;;;;;;;;5022885;28;20369;-70
2022/09/11 12:51:19;;;;;;;0.95;0.55;;;;;;;;;;5024489;28;20116;-70
2022/09/11 12:53:46;;;;;;;0.47;0.30;;;;;;;;;;5023878;28;20164;-70
2022/09/11 12:56:18;;;;;;;0.43;0.30;;;;;;;;;;5024279;28;20127;-71
2022/09/11 12:58:46;;;;;;;0.40;0.38;;;;;;;;;;5025533;28;20139;-71
2022/09/11 13:01:12;;;;;;;0.40;0.40;;;;;;;;;;5025560;28;20056;-70
2022/09/11 13:03:55;;;;;;;0.35;0.32;;;;;;;;;;5023368;28;20497;-70
2022/09/11 13:06:22;;;;;;;0.28;0.20;;;;;;;;;;5025666;28;20120;-70
2022/09/11 13:08:53;;;;;;;0.47;0.32;;;;;;;;;;5024655;28;20072;-71
2022/09/11 13:11:37;;;;;;;0.30;0.30;;;;;;;;;;5023390;28;20495;-70
2022/09/11 13:14:05;;;;;;;0.20;0.20;;;;;;;;;;5016853;28;20045;-71
2022/09/11 13:16:35;;;;;;;0.25;0.22;;;;;;;;;;5025455;28;20045;-71
2022/09/11 13:19:19;;;;;;;0.47;0.47;;;;;;;;;;5023505;28;20045;-71
2022/09/11 13:21:48;;;;;;;0.30;0.30;;;;;;;;;;5023743;28;20045;-70
2022/09/11 13:24:27;;;;;;;0.40;0.40;;;;;;;;;;5024646;28;20050;-71
2022/09/11 13:26:58;;;;;;;0.20;0.20;;;;;;;;;;5024385;28;20045;-70
2022/09/11 13:29:25;;;;;;;0.63;0.30;;;;;;;;;;5025341;28;20041;-71
2022/09/11 13:31:52;;;;;;;0.30;0.20;;;;;;;;;;5023995;28;20091;-70
2022/09/11 13:34:19;;;;;;;0.10;0.10;;;;;;;;;;5024766;28;20045;-70
2022/09/11 13:36:47;;;;;;;0.30;0.30;;;;;;;;;;5024752;28;20228;-70
2022/09/11 13:39:14;;;;;;;0.20;0.20;;;;;;;;;;5023214;28;20045;-70
2022/09/11 13:41:43;;;;;;;0.20;0.20;;;;;;;;;;5024621;28;20045;-70
2022/09/11 13:44:32;;;;;;;0.20;0.20;;;;;;;;;;5023488;28;20508;-70
2022/09/11 13:46:59;;;;;;;0.15;0.10;;;;;;;;;;5022283;28;20080;-71
2022/09/11 13:49:25;;;;;;;0.10;0.10;;;;;;;;;;5024995;28;20124;-70
2022/09/11 13:51:51;;;;;;;0.10;0.10;;;;;;;;;;5022308;28;20563;-71
2022/09/11 13:54:27;;;;;;;0.55;0.20;;;;;;;;;;5024514;28;20042;-72
2022/09/11 13:56:56;;;;;;;0.10;0.10;;;;;;;;;;5024419;28;20265;-71
2022/09/11 13:59:38;;;;;;;0.85;0.35;;;;;;;;;;5012146;28;20046;-71
2022/09/11 14:02:17;;;;;;;0.43;0.40;;;;;;;;;;5018751;28;20053;-72
2022/09/11 14:04:43;;;;;;;0.52;0.20;;;;;;;;;;5024980;28;20189;-68
2022/09/11 14:07:18;;;;;;;1.05;0.30;;;;;;;;;;5024007;28;20152;-70
2022/09/11 14:09:48;;;;;;;0.20;0.20;;;;;;;;;;5017470;28;20124;-70
2022/09/11 14:12:14;;;;;;;0.20;0.20;;;;;;;;;;5017291;28;20107;-70
2022/09/11 14:14:45;;;;;;;0.43;0.40;;;;;;;;;;5018305;28;20132;-71
2022/09/11 14:17:12;;;;;;;0.32;0.25;;;;;;;;;;5018011;28;20144;-71
2022/09/11 14:19:41;;;;;;;0.30;0.20;;;;;;;;;;5024954;28;20591;-71
2022/09/11 14:22:23;;;;;;;0.75;0.50;;;;;;;;;;5017805;28;20041;-72
2022/09/11 14:24:54;;;;;;;0.20;0.17;;;;;;;;;;5023491;28;20061;-72
2022/09/11 14:27:34;;;;;;;0.30;0.15;;;;;;;;;;5021345;28;20068;-72
2022/09/11 14:30:00;;;;;;;0.20;0.20;;;;;;;;;;5014459;28;20217;-72
2022/09/11 14:32:35;;;;;;;0.10;0.10;;;;;;;;;;5013111;28;20663;-72
2022/09/11 14:35:01;;;;;;;0.40;0.10;;;;;;;;;;5020534;28;20053;-72
2022/09/11 14:37:28;;;;;;;0.10;0.10;;;;;;;;;;5016915;28;20510;-72
2022/09/11 14:39:55;;;;;;;0.50;0.22;;;;;;;;;;5023609;28;20527;-72
2022/09/11 14:42:23;;;;;;;0.22;0.20;;;;;;;;;;5023855;28;20045;-73
2022/09/11 14:44:49;;;;;;;0.17;0.10;;;;;;;;;;5013239;28;20104;-72
2022/09/11 14:47:16;;;;;;;0.20;0.20;;;;;;;;;;5013415;28;20042;-72
2022/09/11 14:49:44;;;;;;;0.22;0.20;;;;;;;;;;5004441;28;20649;-72
2022/09/11 14:52:12;;;;;;;0.73;0.50;;;;;;;;;;5004618;28;20480;-72
2022/09/11 14:54:38;;;;;;;0.30;0.30;;;;;;;;;;5007564;28;20057;-72
2022/09/11 14:57:09;;;;;;;0.80;0.40;;;;;;;;;;5012884;28;20045;-72
2022/09/11 14:59:35;;;;;;;0.80;0.65;;;;;;;;;;5004815;28;20089;-72
2022/09/11 15:02:01;;;;;;;0.57;0.43;;;;;;;;;;5003352;28;20743;-72
2022/09/11 15:04:28;;;;;;;0.80;0.50;;;;;;;;;;5004407;28;20049;-72
2022/09/11 15:06:55;;;;;;;0.52;0.43;;;;;;;;;;5003189;28;20053;-72
2022/09/11 15:09:21;;;;;;;1.10;0.73;;;;;;;;;;5005113;28;20054;-72